createdAt,value
2023-05-03T00:01:52.090Z,11.96
2023-05-03T00:05:53.829Z,11.88
2023-05-03T00:09:55.329Z,11.84
2023-05-03T00:13:57.929Z,11.84
2023-05-03T00:17:59.549Z,11.81
2023-05-03T00:22:01.268Z,11.75
2023-05-03T00:26:02.866Z,11.70
2023-05-03T00:30:05.391Z,11.67
2023-05-03T00:34:07.190Z,11.62
2023-05-03T00:38:08.917Z,11.51
2023-05-03T00:42:10.551Z,11.51
2023-05-03T00:46:17.310Z,11.48
2023-05-03T00:50:19.415Z,11.48
2023-05-03T00:54:21.707Z,11.54
2023-05-03T00:58:23.413Z,11.59
2023-05-03T01:02:25.669Z,11.60
2023-05-03T01:06:52.764Z,11.62
2023-05-03T01:11:21.826Z,11.57
2023-05-03T01:15:43.316Z,11.57
2023-05-03T01:19:49.004Z,11.46
2023-05-03T01:24:07.631Z,11.45
2023-05-03T01:28:09.318Z,11.44
2023-05-03T01:32:19.315Z,11.39
2023-05-03T01:36:26.848Z,11.24
2023-05-03T01:40:30.728Z,11.26
2023-05-03T01:44:33.615Z,11.27
2023-05-03T01:48:35.189Z,11.23
2023-05-03T01:52:37.931Z,11.20
2023-05-03T01:56:39.652Z,11.20
2023-05-03T02:00:41.268Z,11.09
2023-05-03T02:04:42.992Z,11.09
2023-05-03T02:08:44.641Z,11.16
2023-05-03T02:12:46.455Z,11.12
2023-05-03T02:16:48.597Z,11.03
2023-05-03T02:20:50.524Z,10.99
2023-05-03T02:24:52.838Z,10.93
2023-05-03T02:28:55.899Z,10.91
2023-05-03T02:32:57.586Z,10.90
2023-05-03T02:36:59.781Z,10.87
2023-05-03T02:41:01.607Z,10.72
2023-05-03T02:45:05.619Z,10.69
2023-05-03T02:49:08.253Z,10.60
2023-05-03T02:53:09.917Z,10.58
2023-05-03T02:57:12.111Z,10.54
2023-05-03T03:01:13.726Z,10.44
2023-05-03T03:05:16.937Z,10.38
2023-05-03T03:09:22.971Z,10.43
2023-05-03T03:13:24.686Z,10.32
2023-05-03T03:17:26.747Z,10.18
2023-05-03T03:21:29.048Z,10.04
2023-05-03T03:25:31.012Z,9.99
2023-05-03T03:29:35.254Z,9.95
2023-05-03T03:33:38.817Z,9.93
2023-05-03T03:37:46.525Z,9.95
2023-05-03T03:41:48.367Z,9.96
2023-05-03T03:45:50.345Z,9.98
2023-05-03T03:49:52.816Z,10.01
2023-05-03T03:53:54.582Z,9.99
2023-05-03T03:57:59.065Z,10.04
2023-05-03T04:02:02.822Z,10.16
2023-05-03T04:06:05.258Z,10.14
2023-05-03T04:10:07.529Z,10.06
2023-05-03T04:14:10.876Z,9.99
2023-05-03T04:18:12.557Z,9.93
2023-05-03T04:22:16.654Z,9.88
2023-05-03T04:26:30.718Z,9.80
2023-05-03T04:30:38.905Z,9.83
2023-05-03T04:34:42.294Z,9.80
2023-05-03T04:38:44.334Z,9.80
2023-05-03T04:42:46.584Z,9.80
2023-05-03T04:46:49.512Z,9.75
2023-05-03T04:50:52.707Z,9.67
2023-05-03T04:54:56.721Z,9.62
2023-05-03T04:58:59.130Z,9.60
2023-05-03T05:03:01.262Z,9.60
2023-05-03T05:07:05.855Z,9.59
2023-05-03T05:11:08.535Z,9.59
2023-05-03T05:15:11.124Z,9.59
2023-05-03T05:19:14.248Z,9.63
2023-05-03T05:23:16.192Z,9.60
2023-05-03T05:27:20.964Z,9.68
2023-05-03T05:31:24.357Z,9.75
2023-05-03T05:35:27.038Z,9.78
2023-05-03T05:39:28.877Z,9.77
2023-05-03T05:43:30.799Z,9.80
2023-05-03T05:47:32.672Z,9.86
2023-05-03T05:51:34.928Z,9.91
2023-05-03T05:55:37.424Z,9.96
2023-05-03T05:59:40.712Z,9.98
2023-05-03T06:03:42.702Z,10.06
2023-05-03T06:07:44.632Z,10.10
2023-05-03T06:11:46.220Z,10.14
2023-05-03T06:15:49.166Z,10.22
2023-05-03T06:19:51.388Z,10.36
2023-05-03T06:23:54.243Z,10.46
2023-05-03T06:27:56.085Z,10.55
2023-05-03T06:32:01.213Z,10.57
2023-05-03T06:36:03.131Z,10.66
2023-05-03T06:40:06.833Z,10.75
2023-05-03T06:44:08.548Z,10.84
2023-05-03T06:48:10.209Z,10.95
2023-05-03T06:52:13.064Z,11.21
2023-05-03T06:56:14.576Z,11.44
2023-05-03T07:00:16.528Z,11.63
2023-05-03T07:04:18.150Z,11.85
2023-05-03T07:08:19.744Z,12.04
2023-05-03T07:12:21.517Z,12.33
2023-05-03T07:16:25.500Z,12.56
2023-05-03T07:20:27.250Z,12.67
2023-05-03T07:24:29.350Z,12.70
2023-05-03T07:28:30.921Z,12.71
2023-05-03T07:32:32.559Z,12.80
2023-05-03T07:36:34.155Z,12.91
2023-05-03T07:40:35.689Z,12.99
2023-05-03T07:44:37.243Z,13.27
2023-05-03T07:48:38.802Z,13.36
2023-05-03T07:52:42.286Z,13.41
2023-05-03T07:56:43.823Z,13.54
2023-05-03T08:00:45.640Z,13.69
2023-05-03T08:04:47.684Z,13.69
2023-05-03T08:08:49.569Z,13.76
2023-05-03T08:12:51.401Z,13.83
2023-05-03T08:16:52.971Z,14.01
2023-05-03T08:20:54.716Z,14.12
2023-05-03T08:24:56.464Z,14.38
2023-05-03T08:28:58.076Z,14.48
2023-05-03T08:33:00.423Z,14.48
2023-05-03T08:37:04.400Z,14.61
2023-05-03T08:41:23.669Z,14.52
2023-05-03T08:45:25.663Z,14.44
2023-05-03T08:49:28.787Z,14.60
2023-05-03T08:53:30.734Z,14.82
2023-05-03T08:57:33.788Z,14.91
2023-05-03T09:01:37.196Z,14.93
2023-05-03T09:05:40.459Z,14.91
2023-05-03T09:09:44.948Z,15.09
2023-05-03T09:13:48.420Z,14.93
2023-05-03T09:18:19.959Z,14.98
2023-05-03T09:22:31.649Z,15.01
2023-05-03T09:26:37.249Z,15.12
2023-05-03T09:30:39.418Z,15.05
2023-05-03T09:34:41.011Z,14.94
2023-05-03T09:38:42.762Z,15.00
2023-05-03T09:43:10.322Z,15.27
2023-05-03T09:47:12.278Z,15.48
2023-05-03T09:51:13.898Z,15.64
2023-05-03T09:55:19.263Z,15.81
2023-05-03T09:59:21.270Z,15.98
2023-05-03T10:03:31.846Z,16.06
2023-05-03T10:07:34.374Z,16.23
2023-05-03T10:11:38.940Z,16.37
2023-05-03T10:15:42.957Z,16.45
2023-05-03T10:19:52.767Z,16.59
2023-05-03T10:24:10.103Z,16.75
2023-05-03T10:28:11.754Z,16.88
2023-05-03T10:32:33.294Z,16.84
2023-05-03T10:36:48.537Z,17.02
2023-05-03T10:40:52.044Z,17.18
2023-05-03T10:44:54.409Z,17.35
2023-05-03T10:49:28.709Z,17.51
2023-05-03T10:53:43.422Z,17.63
2023-05-03T10:57:46.764Z,17.70
2023-05-03T11:01:51.208Z,17.73
2023-05-03T11:05:53.943Z,17.89
2023-05-03T11:09:56.228Z,18.07
2023-05-03T11:13:58.202Z,18.23
2023-05-03T11:18:00.153Z,18.29
2023-05-03T11:22:02.215Z,18.46
2023-05-03T11:26:06.571Z,18.49
2023-05-03T11:30:10.245Z,18.57
2023-05-03T11:34:12.872Z,18.64
2023-05-03T11:38:14.633Z,18.75
2023-05-03T11:42:16.191Z,18.84
2023-05-03T11:46:24.648Z,18.89
2023-05-03T11:50:55.376Z,18.86
2023-05-03T11:54:57.355Z,19.10
2023-05-03T11:58:59.638Z,19.35
2023-05-03T12:03:01.916Z,19.61
2023-05-03T12:07:05.220Z,19.79
2023-05-03T12:11:08.590Z,19.95
2023-05-03T12:15:13.177Z,20.15
2023-05-03T12:19:27.435Z,20.27
2023-05-03T12:23:29.702Z,20.33
2023-05-03T12:27:32.799Z,20.42
2023-05-03T12:31:34.995Z,20.64
2023-05-03T12:35:39.969Z,20.79
2023-05-03T12:39:46.182Z,20.87
2023-05-03T12:43:52.620Z,21.19
2023-05-03T12:47:54.797Z,21.42
2023-05-03T12:52:18.798Z,21.59
2023-05-03T12:56:24.910Z,21.68
2023-05-03T13:00:34.874Z,21.79
2023-05-03T13:08:49.348Z,21.93
2023-05-03T13:12:53.827Z,22.05
2023-05-03T13:16:55.853Z,21.96
2023-05-03T13:20:57.492Z,21.99
2023-05-03T13:24:59.254Z,22.11
2023-05-03T13:29:01.228Z,22.39
2023-05-03T13:33:02.921Z,22.35
2023-05-03T13:37:06.714Z,22.51
2023-05-03T13:41:11.690Z,22.69
2023-05-03T13:45:15.093Z,22.57
2023-05-03T13:49:16.603Z,22.64
2023-05-03T13:53:18.376Z,22.69
2023-05-03T13:57:20.456Z,22.81
2023-05-03T14:01:22.175Z,22.96
2023-05-03T14:05:23.761Z,23.09
2023-05-03T14:09:25.342Z,23.21
2023-05-03T14:13:29.607Z,23.19
2023-05-03T14:17:33.287Z,23.39
2023-05-03T14:21:34.907Z,23.15
2023-05-03T14:25:36.544Z,23.32
2023-05-03T14:29:38.136Z,23.26
2023-05-03T14:33:39.994Z,23.35
2023-05-03T14:37:41.772Z,23.37
2023-05-03T14:41:46.136Z,23.18
2023-05-03T14:45:51.134Z,23.59
2023-05-03T14:49:52.664Z,24.00
2023-05-03T14:53:54.495Z,24.23
2023-05-03T14:57:56.193Z,23.96
2023-05-03T15:01:57.871Z,23.82
2023-05-03T15:06:00.866Z,23.71
2023-05-03T15:10:03.928Z,24.00
2023-05-03T15:14:06.157Z,24.08
2023-05-03T15:18:08.725Z,24.16
2023-05-03T15:22:10.561Z,24.37
2023-05-03T15:26:12.156Z,24.52
2023-05-03T15:30:15.068Z,24.75
2023-05-03T15:34:16.631Z,24.82
2023-05-03T15:38:18.320Z,24.83
2023-05-03T15:42:19.999Z,24.87
2023-05-03T15:46:22.105Z,24.79
2023-05-03T15:50:23.810Z,24.75
2023-05-03T15:54:25.408Z,24.79
2023-05-03T15:58:31.126Z,24.61
2023-05-03T16:02:32.660Z,24.55
2023-05-03T16:06:34.528Z,24.67
2023-05-03T16:10:36.167Z,24.61
2023-05-03T16:14:37.756Z,24.60
2023-05-03T16:18:39.346Z,24.29
2023-05-03T16:22:40.889Z,24.23
2023-05-03T16:26:42.490Z,24.30
2023-05-03T16:30:44.933Z,24.37
2023-05-03T16:34:47.548Z,24.34
2023-05-03T16:38:50.708Z,24.21
2023-05-03T16:42:52.289Z,24.04
2023-05-03T16:46:53.967Z,23.92
2023-05-03T16:50:56.330Z,23.75
2023-05-03T16:54:57.923Z,23.23
2023-05-03T16:58:59.499Z,23.21
2023-05-03T17:03:01.313Z,23.01
2023-05-03T17:07:03.012Z,22.74
2023-05-03T17:11:11.974Z,22.52
2023-05-03T17:15:13.750Z,22.23
2023-05-03T17:19:15.630Z,22.11
2023-05-03T17:23:19.293Z,21.86
2023-05-03T17:27:24.095Z,21.77
2023-05-03T17:31:25.717Z,21.63
2023-05-03T17:35:27.276Z,21.51
2023-05-03T17:39:28.852Z,21.31
2023-05-03T17:43:30.716Z,21.13
2023-05-03T17:47:32.415Z,20.91
2023-05-03T17:51:33.955Z,20.66
2023-05-03T17:55:38.051Z,20.54
2023-05-03T17:59:39.800Z,20.41
2023-05-03T18:03:41.840Z,20.30
2023-05-03T18:07:44.512Z,20.15
2023-05-03T18:11:48.246Z,20.08
2023-05-03T18:15:50.499Z,20.01
2023-05-03T18:19:52.105Z,19.94
2023-05-03T18:23:53.715Z,19.82
2023-05-03T18:27:57.103Z,19.72
2023-05-03T18:31:58.924Z,19.57
2023-05-03T18:36:00.582Z,19.46
2023-05-03T18:40:02.596Z,19.34
2023-05-03T18:44:04.369Z,19.21
2023-05-03T18:48:07.407Z,19.10
2023-05-03T18:52:09.106Z,18.97
2023-05-03T18:56:10.777Z,18.87
2023-05-03T19:00:13.386Z,18.78
2023-05-03T19:04:15.797Z,18.71
2023-05-03T19:08:17.401Z,18.60
2023-05-03T19:12:19.566Z,18.53
2023-05-03T19:16:21.395Z,18.42
2023-05-03T19:20:23.016Z,18.34
2023-05-03T19:24:24.584Z,18.28
2023-05-03T19:28:26.131Z,18.21
2023-05-03T19:32:27.742Z,18.11
2023-05-03T19:36:29.797Z,18.10
2023-05-03T19:40:31.352Z,17.99
2023-05-03T19:44:33.348Z,17.89
2023-05-03T19:48:35.100Z,17.80
2023-05-03T19:52:37.701Z,17.76
2023-05-03T19:56:39.305Z,17.70
2023-05-03T20:00:41.078Z,17.65
2023-05-03T20:04:42.647Z,17.60
2023-05-03T20:08:44.312Z,17.53
2023-05-03T20:12:46.882Z,17.47
2023-05-03T20:16:48.568Z,17.46
2023-05-03T20:20:50.302Z,17.43
2023-05-03T20:24:52.546Z,17.42
2023-05-03T20:28:54.239Z,17.36
2023-05-03T20:32:55.891Z,17.36
2023-05-03T20:36:57.621Z,17.30
2023-05-03T20:40:59.266Z,17.25
2023-05-03T20:45:00.876Z,17.22
2023-05-03T20:49:02.471Z,17.18
2023-05-03T20:53:04.029Z,17.14
2023-05-03T20:57:05.609Z,17.09
2023-05-03T21:01:08.026Z,17.10
2023-05-03T21:05:11.301Z,17.07
2023-05-03T21:09:13.077Z,17.00
2023-05-03T21:13:14.754Z,16.91
2023-05-03T21:17:16.421Z,16.84
2023-05-03T21:21:18.195Z,16.77
2023-05-03T21:25:20.127Z,16.63
2023-05-03T21:29:21.791Z,16.60
2023-05-03T21:33:23.665Z,16.54
2023-05-03T21:37:25.310Z,16.50
2023-05-03T21:41:27.013Z,16.45
2023-05-03T21:45:28.613Z,16.40
2023-05-03T21:49:30.605Z,16.34
2023-05-03T21:53:33.290Z,16.32
2023-05-03T21:57:34.935Z,16.26
2023-05-03T22:01:36.773Z,16.22
2023-05-03T22:05:39.414Z,16.13
2023-05-03T22:09:41.233Z,15.96
2023-05-03T22:13:58.855Z,15.88
2023-05-03T22:18:05.508Z,15.80
2023-05-03T22:22:07.323Z,15.77
2023-05-03T22:26:08.887Z,15.70
2023-05-03T22:30:11.182Z,15.60
2023-05-03T22:34:12.935Z,15.55
2023-05-03T22:38:14.615Z,15.52
2023-05-03T22:42:17.586Z,15.41
2023-05-03T22:46:19.355Z,15.23
2023-05-03T22:50:21.175Z,15.07
2023-05-03T22:54:22.814Z,15.03
2023-05-03T22:58:25.619Z,14.87
2023-05-03T23:02:27.522Z,14.83
2023-05-03T23:06:29.211Z,14.63
2023-05-03T23:10:30.807Z,14.49
2023-05-03T23:14:32.462Z,14.44
2023-05-03T23:18:34.083Z,14.44
2023-05-03T23:22:35.859Z,14.35
2023-05-03T23:26:37.434Z,14.38
2023-05-03T23:30:43.694Z,14.24
2023-05-03T23:34:45.710Z,13.87
2023-05-03T23:38:49.299Z,13.76
2023-05-03T23:42:51.057Z,13.66
2023-05-03T23:46:52.582Z,13.68
2023-05-03T23:50:54.169Z,13.73
2023-05-03T23:54:55.909Z,13.72
2023-05-03T23:58:57.450Z,13.72
